Home > Products > Valid Products > MTR

000
SAUS41 KOKX 290455
MTRMTP
METAR KMTP 290454Z AUTO 35007KT 20/13 A3004 RMK AO1 SLP173 T02000128
402780200





000
SAUS41 KOKX 290452
MTRNYC
METAR KNYC 290451Z AUTO VRB04KT 10SM CLR 19/08 A3010 RMK AO2 SLP184
T01890083 402780189 $





000
SAUS41 KOKX 290355
MTRMTP
METAR KMTP 290354Z AUTO 34008KT 21/13 A3001 RMK AO1 SLP163 T02060128





000
SAUS41 KOKX 290352
MTRNYC
METAR KNYC 290351Z AUTO VRB03KT 10SM CLR 19/08 A3009 RMK AO2 SLP179
T01940078 $





000
SAUS41 KOKX 290255
MTRMTP
METAR KMTP 290254Z AUTO 33008KT 21/14 A3000 RMK AO1 SLP160 T02110139
51024





000
SAUS41 KOKX 290253
MTRNYC
METAR KNYC 290251Z AUTO VRB05KT 10SM CLR 21/07 A3007 RMK AO2 SLP174
T02060072 51027 $





000
SAUS41 KOKX 290155
MTRMTP
METAR KMTP 290154Z AUTO 34008KT 22/14 A2999 RMK AO1 SLP154 T02170139





000
SAUS41 KOKX 290152
MTRNYC
METAR KNYC 290151Z AUTO 10SM CLR 21/07 A3006 RMK AO2 SLP171
T02110067 $





000
SAUS41 KOKX 290056
MTRMTP
METAR KMTP 290054Z AUTO 33008KT 22/15 A2996 RMK AO1 SLP145 T02220150





000
SAUS41 KOKX 290053
MTRNYC
METAR KNYC 290051Z AUTO VRB03G17KT 10SM CLR 23/09 A3003 RMK AO2
SLP159 T02280089 $





000
SAUS41 KOKX 282355
MTRMTP
METAR KMTP 282354Z AUTO 32006KT 23/15 A2993 RMK AO1 SLP136 T02280150
10278 20228 53025





000
SAUS41 KOKX 282353
MTRNYC
METAR KNYC 282351Z AUTO 31007G18KT 270V360 10SM FEW070 24/09 A2999
RMK AO2 SLP147 T02390089 10272 20239 53021 $





000
SAUS41 KOKX 282255
MTRMTP
METAR KMTP 282254Z AUTO 32008KT 23/16 A2990 RMK AO1 SLP126 T02330156





000
SAUS41 KOKX 282252
MTRNYC
METAR KNYC 282251Z AUTO 31008G15KT 10SM FEW065 25/09 A2996 RMK AO2
SLP136 T02500094 $





000
SAUS41 KOKX 282155
MTRMTP
METAR KMTP 282154Z AUTO 30007KT 25/16 A2988 RMK AO1 SLP118 T02500156





000
SAUS41 KOKX 282153
MTRNYC
METAR KNYC 282151Z AUTO VRB05G14KT 10SM CLR 26/09 A2995 RMK AO2
SLP131 T02560089 $





000
SAUS41 KOKX 282055
MTRMTP
METAR KMTP 282054Z AUTO 30008KT 26/15 A2986 RMK AO1 SLP110 T02610150





000
SAUS41 KOKX 282053
MTRNYC
METAR KNYC 282051Z AUTO 03008G15KT 330V080 10SM FEW065 26/09 A2993
RMK AO2 SLP124 T02610089 53006 $





000
SAUS41 KOKX 281955
MTRMTP
METAR KMTP 281954Z AUTO 28006KT 27/15 A2984 RMK AO1 SLP106 T02670150





000
SAUS41 KOKX 281952
MTRNYC
METAR KNYC 281951Z AUTO 10SM SCT065 27/09 A2991 RMK AO2 SLP119
T02670089 $





000
SAUS41 KOKX 281855
MTRMTP
METAR KMTP 281854Z AUTO 31008KT 26/16 A2984 RMK AO1 SLP105 T02610161





000
SAUS41 KOKX 281852
MTRNYC
METAR KNYC 281851Z AUTO VRB05KT 10SM FEW060 27/10 A2991 RMK AO2
SLP117 T02720100 $





000
SAUS41 KOKX 281755
MTRMTP
METAR KMTP 281754Z AUTO 30008KT 26/17 A2984 RMK AO1 SLP106 T02560167
10267 20211 55000





000
SAUS41 KOKX 281752
MTRNYC
METAR KNYC 281751Z AUTO VRB03G16KT 10SM SCT050 27/11 A2991 RMK AO2
SLP119 T02670111 10278 20206 56009 $





000
SAUS41 KOKX 281655
MTRMTP
METAR KMTP 281654Z AUTO 30009KT 26/16 A2984 RMK AO1 SLP103 T02560161





000
SAUS41 KOKX 281652
MTRNYC
METAR KNYC 281651Z AUTO 33007KT 290V020 10SM CLR 27/12 A2991 RMK AO2
SLP119 T02670117 $





000
SAUS41 KOKX 281555
MTRMTP
METAR KMTP 281554Z AUTO 32006KT 26/17 A2984 RMK AO1 SLP105 T02560167





000
SAUS41 KOKX 281552
MTRNYC
METAR KNYC 281551Z AUTO VRB03KT 10SM CLR 26/12 A2992 RMK AO2 SLP123
T02560122 $





000
SAUS41 KOKX 281455
MTRMTP
METAR KMTP 281454Z AUTO 34007KT 24/17 A2985 RMK AO1 SLP106 T02440172
50001





000
SAUS41 KOKX 281452
MTRNYC
METAR KNYC 281451Z AUTO VRB04KT 10SM CLR 23/12 A2994 RMK AO2 SLP127
T02330117 50002 $





000
SAUS41 KOKX 281355
MTRMTP
METAR KMTP 281354Z AUTO 34006KT 23/17 A2985 RMK AO1 SLP108 T02330167





000
SAUS41 KOKX 281352
MTRNYC
METAR KNYC 281351Z AUTO VRB04KT 10SM CLR 22/12 A2994 RMK AO2 SLP128
T02220122 $





000
SAUS41 KOKX 281255
MTRMTP
METAR KMTP 281254Z AUTO 34008KT 23/17 A2984 RMK AO1 SLP105 T02280172





000
SAUS41 KOKX 281252
MTRNYC
METAR KNYC 281251Z AUTO VRB05KT 10SM CLR 21/12 A2994 RMK AO2 SLP129
T02110122 $





000
SAUS41 KOKX 281155
MTRMTP
METAR KMTP 281154Z AUTO 33007KT 21/17 A2984 RMK AO1 SLP105 T02110172
10228 20206 53008





000
SAUS41 KOKX 281153
MTRNYC
METAR KNYC 281151Z AUTO 33004KT 10SM CLR 21/12 A2993 RMK AO2 SLP125
T02060122 10256 20200 53013 $





000
SAUS41 KOKX 281055
MTRMTP
METAR KMTP 281054Z AUTO 32006KT 21/17 A2983 RMK AO1 SLP102 T02060167





000
SAUS41 KOKX 281052
MTRNYC
METAR KNYC 281051Z AUTO VRB06KT 10SM CLR 21/12 A2991 RMK AO2 SLP118
T02060122 $





000
SAUS41 KOKX 280955
MTRMTP
METAR KMTP 280954Z AUTO 32006KT 21/17 A2983 RMK AO1 SLP100 T02060167





000
SAUS41 KOKX 280953
MTRNYC
METAR KNYC 280951Z AUTO VRB04KT 10SM CLR 22/13 A2990 RMK AO2 SLP115
T02170128





000
SAUS41 KOKX 280855
MTRMTP
METAR KMTP 280854Z AUTO 32006KT 21/17 A2982 RMK AO1 SLP097 T02110172
55011





000
SAUS41 KOKX 280852
MTRNYC
METAR KNYC 280851Z AUTO VRB04KT 10SM FEW070 23/13 A2989 RMK AO2
SLP112 T02280128 53003





000
SAUS41 KOKX 280755
MTRMTP
METAR KMTP 280754Z AUTO 27005KT 22/19 A2982 RMK AO1 SLP097 T02220194





000
SAUS41 KOKX 280753
MTRNYC
METAR KNYC 280751Z AUTO 10SM SCT033 24/16 A2988 RMK AO2 SLP107
T02390161





000
SAUS41 KOKX 280704
MTRNYC
SPECI KNYC 280703Z AUTO VRB04KT 10SM SCT026 24/19 A2988 RMK AO2
T02440194





000
SAUS41 KOKX 280655
MTRMTP
METAR KMTP 280654Z AUTO 25003KT 22/19 A2983 RMK AO1 SLP102 T02220194





000
SAUS41 KOKX 280652
MTRNYC
METAR KNYC 280651Z AUTO VRB03KT 10SM BKN026 BKN034 26/19 A2988 RMK
AO2 SLP107 T02560194





000
SAUS41 KOKX 280555
MTRMTP
METAR KMTP 280554Z AUTO 24004KT 23/19 A2985 RMK AO1 SLP108 T02280189
10228 20217 58016





000
SAUS41 KOKX 280553
MTRNYC
METAR KNYC 280551Z AUTO 10SM FEW110 24/19 A2988 RMK AO2 SLP110
T02440194 10283 20244 58007





000
SAUS41 KOKX 280455
MTRMTP
METAR KMTP 280454Z AUTO 00000KT 22/19 A2987 RMK AO1 SLP113 T02170189
402720178





000
SAUS41 KOKX 280452
MTRNYC
METAR KNYC 280451Z AUTO 33006KT 10SM FEW050 26/18 A2990 RMK AO2
SLP116 T02560183 403220211





000
SAUS41 KOKX 280355
MTRMTP
METAR KMTP 280354Z AUTO 28005KT 22/19 A2990 RMK AO1 SLP123 T02220189





000
SAUS41 KOKX 280352
MTRNYC
METAR KNYC 280351Z AUTO 02003KT 10SM BKN047 25/19 A2990 RMK AO2
SLP116 T02500189





000
SAUS41 KOKX 280256
MTRMTP
METAR KMTP 280254Z AUTO 24004KT 22/20 A2990 RMK AO1 SLP124 T02220200
58006





000
SAUS41 KOKX 280253
MTRNYC
METAR KNYC 280251Z AUTO 05003KT 10SM FEW044 26/18 A2991 RMK AO2
SLP117 T02560183 50005





000
SAUS41 KOKX 280155
MTRMTP
METAR KMTP 280154Z AUTO 22005KT 22/20 A2991 RMK AO1 SLP128 T02220200





000
SAUS41 KOKX 280152
MTRNYC
METAR KNYC 280151Z AUTO 05009KT 10SM BKN049 OVC075 27/18 A2992 RMK
AO2 SLP121 T02720183





000
SAUS41 KOKX 280056
MTRMTP
METAR KMTP 280054Z AUTO VRB03KT 23/18 A2992 RMK AO1 SLP130 T02280178





000
SAUS41 KOKX 280052
MTRNYC
METAR KNYC 280051Z AUTO VRB03KT 10SM OVC050 28/18 A2992 RMK AO2
SLP120 T02830183





000
SAUS41 KOKX 272355
MTRMTP
METAR KMTP 272354Z AUTO 20005KT 23/19 A2992 RMK AO1 SLP130 T02280189
10267 20228 55004





000
SAUS41 KOKX 272352
MTRNYC
METAR KNYC 272351Z AUTO 00000KT 10SM CLR 28/18 A2989 RMK AO2 SLP112
T02830183 10322 20283 55007





000
SAUS41 KOKX 272255
MTRMTP
METAR KMTP 272254Z AUTO 20006KT 23/18 A2990 RMK AO1 SLP126 T02330178





000
SAUS41 KOKX 272253
MTRNYC
METAR KNYC 272251Z AUTO VRB03KT 9SM CLR 29/19 A2989 RMK AO2 SLP112
T02940189





000
SAUS41 KOKX 272155
MTRMTP
METAR KMTP 272154Z AUTO 20008KT 24/18 A2992 RMK AO1 SLP130 T02440178





000
SAUS41 KOKX 272152
MTRNYC
METAR KNYC 272151Z AUTO VRB03KT 10SM CLR 30/18 A2990 RMK AO2 SLP116
T03000178





000
SAUS41 KOKX 272055
MTRMTP
METAR KMTP 272054Z AUTO 19006KT 25/18 A2993 RMK AO1 SLP134 T02500178
56017





000
SAUS41 KOKX 272052
MTRNYC
METAR KNYC 272051Z AUTO 17007KT 140V230 10SM CLR 31/17 A2991 RMK AO2
SLP119 T03060172 56018





000
SAUS41 KOKX 271955
MTRMTP
METAR KMTP 271954Z AUTO 20008KT 26/17 A2994 RMK AO1 SLP137 T02610167





000
SAUS41 KOKX 271952
MTRNYC
METAR KNYC 271951Z AUTO 00000KT 10SM CLR 32/17 A2992 RMK AO2 SLP122
T03170172





000
SAUS41 KOKX 271855
MTRMTP
METAR KMTP 271854Z AUTO 20007KT 26/18 A2996 RMK AO1 SLP144 T02610178





000
SAUS41 KOKX 271852
MTRNYC
METAR KNYC 271851Z AUTO 00000KT 10SM CLR 32/17 A2994 RMK AO2 SLP129
T03170167





000
SAUS41 KOKX 271755
MTRMTP
METAR KMTP 271754Z AUTO 20008G19KT 25/19 A2998 RMK AO1 SLP151
T02500194 10272 20217 56020





000
SAUS41 KOKX 271752
MTRNYC
METAR KNYC 271751Z AUTO VRB03KT 10SM CLR 32/17 A2997 RMK AO2 SLP137
T03170167 10322 20228 58027





000
SAUS41 KOKX 271655
MTRMTP
METAR KMTP 271654Z AUTO 21007KT 26/19 A2999 RMK AO1 SLP156 T02610194





000
SAUS41 KOKX 271653
MTRNYC
METAR KNYC 271651Z AUTO VRB05KT 10SM CLR 31/16 A2999 RMK AO2 SLP145
T03060161





000
SAUS41 KOKX 271555
MTRMTP
METAR KMTP 271554Z AUTO 20008KT 26/19 A3001 RMK AO1 SLP162 T02560194





000
SAUS41 KOKX 271554
MTRNYC
METAR KNYC 271551Z AUTO 00000KT 10SM CLR 29/17 A3002 RMK AO2 SLP156
T02940172





000
SAUS41 KOKX 271455
MTRMTP
METAR KMTP 271454Z AUTO 21007KT 26/19 A3004 RMK AO1 SLP170 T02560189
58009





000
SAUS41 KOKX 271454
MTRNYC
METAR KNYC 271451Z AUTO 26003KT 9SM CLR 28/17 A3005 RMK AO2 SLP164
T02780167 58009





000
SAUS41 KOKX 271355
MTRMTP
METAR KMTP 271354Z AUTO 21008KT 24/20 A3005 RMK AO1 SLP174 T02390200





000
SAUS41 KOKX 271354
MTRNYC
METAR KNYC 271351Z AUTO 00000KT 10SM CLR 26/16 A3006 RMK AO2 SLP168
T02610156





000
SAUS41 KOKX 271255
MTRMTP
METAR KMTP 271254Z AUTO 20006KT 23/20 A3006 RMK AO1 SLP177 T02280200





000
SAUS41 KOKX 271254
MTRNYC
METAR KNYC 271251Z AUTO 00000KT 10SM CLR 24/17 A3007 RMK AO2 SLP172
T02440167





000
SAUS41 KOKX 271155
MTRMTP
METAR KMTP 271154Z AUTO VRB05KT 22/20 A3006 RMK AO1 SLP179 T02170200
10217 20178 53007





000
SAUS41 KOKX 271152
MTRNYC
METAR KNYC 271151Z AUTO 00000KT 10SM CLR 23/17 A3007 RMK AO2 SLP173
T02330167 10233 20211 53006





000
SAUS41 KOKX 271055
MTRMTP
METAR KMTP 271054Z AUTO 17004KT 21/19 A3005 RMK AO1 SLP176 T02060189





000
SAUS41 KOKX 271052
MTRNYC
METAR KNYC 271051Z AUTO 00000KT 10SM CLR 22/17 A3006 RMK AO2 SLP170
T02170167





000
SAUS41 KOKX 270955
MTRMTP
METAR KMTP 270954Z AUTO 00000KT 19/17 A3005 RMK AO1 SLP175 T01890172





000
SAUS41 KOKX 270955
MTRMTP
METAR KMTP 270954Z AUTO 00000KT 19/17 A3005 RMK AO1 SLP175 T01890172





000
SAUS41 KOKX 270952
MTRNYC
METAR KNYC 270951Z AUTO 29005KT 10SM CLR 21/17 A3006 RMK AO2 SLP168
T02110167





000
SAUS41 KOKX 270952
MTRNYC
METAR KNYC 270951Z AUTO 29005KT 10SM CLR 21/17 A3006 RMK AO2 SLP168
T02110167





000
SAUS41 KOKX 270855
MTRMTP
METAR KMTP 270854Z AUTO 00000KT 19/18 A3004 RMK AO1 SLP172 T01940178
56012





000
SAUS41 KOKX 270852
MTRNYC
METAR KNYC 270851Z AUTO 00000KT 10SM CLR 21/17 A3005 RMK AO2 SLP167
T02110167 57011





000
SAUS41 KOKX 270755
MTRMTP
METAR KMTP 270754Z AUTO 00000KT 20/18 A3005 RMK AO1 SLP174 T02000183





000
SAUS41 KOKX 270752
MTRNYC
METAR KNYC 270751Z AUTO 29004KT 10SM CLR 22/16 A3007 RMK AO2 SLP171
T02170161





000
SAUS41 KOKX 270655
MTRMTP
METAR KMTP 270654Z AUTO 00000KT 20/18 A3006 RMK AO1 SLP179 T02000183





000
SAUS41 KOKX 270652
MTRNYC
METAR KNYC 270651Z AUTO VRB05KT 10SM CLR 21/15 A3007 RMK AO2 SLP174
T02110150





000
SAUS41 KOKX 270555
MTRMTP
METAR KMTP 270554Z AUTO 23003KT 20/18 A3007 RMK AO1 SLP184 T02000178
10211 20200 58015





000
SAUS41 KOKX 270553
MTRNYC
METAR KNYC 270551Z AUTO 25007KT 10SM CLR 22/14 A3009 RMK AO2 SLP178
T02220139 10244 20222 58014





000
SAUS41 KOKX 270455
MTRMTP
METAR KMTP 270454Z AUTO 23003KT 20/18 A3009 RMK AO1 SLP188 T02000178
402610172





000
SAUS41 KOKX 270452
MTRNYC
METAR KNYC 270451Z AUTO VRB03KT 10SM CLR 23/08 A3010 RMK AO2 SLP183
T02280083 403170211





000
SAUS41 KOKX 270355
MTRMTP
METAR KMTP 270354Z AUTO VRB03KT 21/18 A3011 RMK AO1 SLP195 T02060178





000
SAUS41 KOKX 270352
MTRNYC
METAR KNYC 270351Z AUTO VRB05KT 10SM CLR 22/14 A3012 RMK AO2 SLP188
T02220139





000
SAUS41 KOKX 270255
MTRMTP
METAR KMTP 270254Z AUTO 21003KT 21/18 A3012 RMK AO1 SLP199 T02110183
50003





000
SAUS41 KOKX 270253
MTRNYC
METAR KNYC 270251Z AUTO VRB03KT 10SM CLR 23/14 A3013 RMK AO2 SLP191
T02330144 50005





000
SAUS41 KOKX 270155
MTRMTP
METAR KMTP 270154Z AUTO 19004KT 21/18 A3012 RMK AO1 SLP199 T02110183





000
SAUS41 KOKX 270152
MTRNYC
METAR KNYC 270151Z AUTO 00000KT 10SM CLR 23/16 A3014 RMK AO2 SLP196
T02330161





000
SAUS41 KOKX 270055
MTRMTP
METAR KMTP 270054Z AUTO 21004KT 21/19 A3012 RMK AO1 SLP199 T02110189





000
SAUS41 KOKX 270052
MTRNYC
METAR KNYC 270051Z AUTO 00000KT 10SM CLR 24/16 A3012 RMK AO2 SLP190
T02390161





000
SAUS41 KOKX 262355
MTRMTP
METAR KMTP 262354Z AUTO VRB03KT 21/18 A3011 RMK AO1 SLP196 T02110178
10250 20211 56008





000
SAUS41 KOKX 262352
MTRNYC
METAR KNYC 262351Z AUTO VRB03KT 10SM CLR 24/17 A3011 RMK AO2 SLP186
T02440167 10289 20244 55002





000
SAUS41 KOKX 262255
MTRMTP
METAR KMTP 262254Z AUTO VRB03KT 22/17 A3011 RMK AO1 SLP196 T02220172





000
SAUS41 KOKX 262252
MTRNYC
METAR KNYC 262251Z AUTO VRB03KT 10SM CLR 26/16 A3011 RMK AO2 SLP185
T02560161





000
SAUS41 KOKX 262155
MTRMTP
METAR KMTP 262154Z AUTO VRB04KT 23/18 A3011 RMK AO1 SLP197 T02280178





000
SAUS41 KOKX 262152
MTRNYC
METAR KNYC 262151Z AUTO VRB04KT 10SM CLR 27/17 A3011 RMK AO2 SLP185
T02670167





000
SAUS41 KOKX 262055
MTRMTP
METAR KMTP 262054Z AUTO 17006KT 24/16 A3013 RMK AO1 SLP204 T02390161
58013





000
SAUS41 KOKX 262052
MTRNYC
METAR KNYC 262051Z AUTO 00000KT 10SM CLR 28/17 A3012 RMK AO2 SLP188
T02780167 58015





000
SAUS41 KOKX 261955
MTRMTP
METAR KMTP 261954Z AUTO VRB04KT 24/17 A3015 RMK AO1 SLP209 T02440172





000
SAUS41 KOKX 261952
MTRNYC
METAR KNYC 261951Z AUTO VRB05KT 10SM CLR 28/17 A3013 RMK AO2 SLP194
T02830167





000
SAUS41 KOKX 261855
MTRMTP
METAR KMTP 261854Z AUTO VRB04KT 25/17 A3016 RMK AO1 SLP213 T02500172





000
SAUS41 KOKX 261852
MTRNYC
METAR KNYC 261851Z AUTO 16003KT 10SM FEW075 28/18 A3015 RMK AO2
SLP200 T02780183





000
SAUS41 KOKX 261755
MTRMTP
METAR KMTP 261754Z AUTO VRB04KT 25/17 A3017 RMK AO1 SLP217 T02500172
10261 20211 56008





000
SAUS41 KOKX 261753
MTRNYC
METAR KNYC 261751Z AUTO 00000KT 10SM CLR 28/17 A3016 RMK AO2 SLP203
T02830172 10317 20228 58011





000
SAUS41 KOKX 261655
MTRMTP
METAR KMTP 261654Z AUTO VRB04KT 26/18 A3018 RMK AO1 SLP218 T02610178





000
SAUS41 KOKX 261652
MTRNYC
METAR KNYC 261651Z AUTO 06004KT 10SM CLR 31/14 A3017 RMK AO2 SLP207
T03060144





000
SAUS41 KOKX 261555
MTRMTP
METAR KMTP 261554Z AUTO 00000KT 26/17 A3018 RMK AO1 SLP219 T02610172





000
SAUS41 KOKX 261552
MTRNYC
METAR KNYC 261551Z AUTO 06005KT 10SM CLR 29/16 A3018 RMK AO2 SLP211
T02940161





000
SAUS41 KOKX 261455
MTRMTP
METAR KMTP 261454Z AUTO 35006KT 24/17 A3020 RMK AO1 SLP225 T02440172
51003





000
SAUS41 KOKX 261452
MTRNYC
METAR KNYC 261451Z AUTO VRB03KT 8SM CLR 27/18 A3019 RMK AO2 SLP214
T02720183 58001 $





000
SAUS41 KOKX 261355
MTRMTP
METAR KMTP 261354Z AUTO 00000KT 23/17 A3019 RMK AO1 SLP223 T02330172





000
SAUS41 KOKX 261352
MTRNYC
METAR KNYC 261351Z AUTO 00000KT 7SM CLR 26/19 A3019 RMK AO2 SLP214
T02610189 $





000
SAUS41 KOKX 261255
MTRMTP
METAR KMTP 261254Z AUTO 17003KT 23/17 A3020 RMK AO1 SLP225 T02280172





000
SAUS41 KOKX 261253
MTRNYC
METAR KNYC 261251Z AUTO 00000KT 7SM CLR 24/19 A3020 RMK AO2 SLP215
T02440189 $





000
SAUS41 KOKX 261155
MTRMTP
METAR KMTP 261154Z AUTO 00000KT 21/18 A3019 RMK AO1 SLP222 T02110178
10211 20172 51010





000
SAUS41 KOKX 261152
MTRNYC
METAR KNYC 261151Z AUTO 00000KT 8SM CLR 23/18 A3019 RMK AO2 SLP214
7//// T02330183 10239 20211 53013 $





000
SAUS41 KOKX 261055
MTRMTP
METAR KMTP 261054Z AUTO 15003KT 20/18 A3018 RMK AO1 SLP220 T02000183





000
SAUS41 KOKX 261052
MTRNYC
METAR KNYC 261051Z AUTO 00000KT 8SM CLR 22/18 A3018 RMK AO2 SLP209
T02170178 $





000
SAUS41 KOKX 260955
MTRMTP
METAR KMTP 260954Z AUTO 15003KT 19/17 A3017 RMK AO1 SLP215 T01890172





000
SAUS41 KOKX 260952
MTRNYC
METAR KNYC 260951Z AUTO 04003KT 10SM CLR 21/18 A3017 RMK AO2 SLP205
T02110178 $





000
SAUS41 KOKX 260855
MTRMTP
METAR KMTP 260854Z AUTO 00000KT 19/17 A3016 RMK AO1 SLP211 T01890172
55001





000
SAUS41 KOKX 260853
MTRNYC
METAR KNYC 260851Z AUTO 02003KT 9SM CLR 22/18 A3016 RMK AO2 SLP202
T02170178 53000





000
SAUS41 KOKX 260755
MTRMTP
METAR KMTP 260754Z AUTO 00000KT 18/17 A3015 RMK AO1 SLP210 T01780167





000
SAUS41 KOKX 260752
MTRNYC
METAR KNYC 260751Z AUTO 00000KT 10SM CLR 22/17 A3015 RMK AO2 SLP199
T02220167





000
SAUS41 KOKX 260655
MTRMTP
METAR KMTP 260654Z AUTO 00000KT 19/17 A3015 RMK AO1 SLP208 T01890172





000
SAUS41 KOKX 260652
MTRNYC
METAR KNYC 260651Z AUTO 00000KT 10SM CLR 22/16 A3015 RMK AO2 SLP200
T02170156





000
SAUS41 KOKX 260555
MTRMTP
METAR KMTP 260554Z AUTO 00000KT 19/17 A3016 RMK AO1 SLP212 T01890172
10217 20178 50002





000
SAUS41 KOKX 260553
MTRNYC
METAR KNYC 260551Z AUTO 00000KT 10SM CLR 24/16 A3015 RMK AO2 SLP201
T02390156 10272 20228 51002





    US Dept of Commerce
    National Oceanic and Atmospheric Administration
    National Weather Service
    1325 East West Highway
    Silver Spring, MD 20910
    Page Author: NWS Internet Services Team
Disclaimer
Information Quality
Credits
Glossary
Privacy Policy
Freedom of Information Act (FOIA)
About Us
Career Opportunities